sensor_id;sensor_type;location;lat;lon;timestamp;P1;durP1;ratioP1;P2;durP2;ratioP2
78927;SDS011;68322;22.726;113.540;2023-04-28T00:00:44;26.63;;;15.23;;
78927;SDS011;68322;22.726;113.540;2023-04-28T00:03:13;27.17;;;16.13;;
78927;SDS011;68322;22.726;113.540;2023-04-28T00:05:40;27.27;;;15.15;;
78927;SDS011;68322;22.726;113.540;2023-04-28T00:08:07;27.92;;;14.73;;
78927;SDS011;68322;22.726;113.540;2023-04-28T00:10:34;26.45;;;15.38;;
78927;SDS011;68322;22.726;113.540;2023-04-28T00:13:00;24.65;;;14.20;;
78927;SDS011;68322;22.726;113.540;2023-04-28T00:15:27;26.25;;;14.45;;
78927;SDS011;68322;22.726;113.540;2023-04-28T00:17:54;31.55;;;13.38;;
78927;SDS011;68322;22.726;113.540;2023-04-28T00:20:21;29.75;;;15.70;;
78927;SDS011;68322;22.726;113.540;2023-04-28T00:22:48;29.48;;;14.75;;
78927;SDS011;68322;22.726;113.540;2023-04-28T00:25:14;28.38;;;14.00;;
78927;SDS011;68322;22.726;113.540;2023-04-28T00:27:41;26.80;;;14.52;;
78927;SDS011;68322;22.726;113.540;2023-04-28T00:30:08;30.42;;;16.55;;
78927;SDS011;68322;22.726;113.540;2023-04-28T00:32:35;27.80;;;14.38;;
78927;SDS011;68322;22.726;113.540;2023-04-28T00:35:01;25.52;;;13.80;;
78927;SDS011;68322;22.726;113.540;2023-04-28T00:37:28;22.67;;;14.18;;
78927;SDS011;68322;22.726;113.540;2023-04-28T00:39:55;25.08;;;14.82;;
78927;SDS011;68322;22.726;113.540;2023-04-28T00:42:22;32.60;;;15.23;;
78927;SDS011;68322;22.726;113.540;2023-04-28T00:44:48;31.60;;;16.70;;
78927;SDS011;68322;22.726;113.540;2023-04-28T00:47:16;29.40;;;16.77;;
78927;SDS011;68322;22.726;113.540;2023-04-28T00:49:46;27.25;;;15.40;;
78927;SDS011;68322;22.726;113.540;2023-04-28T00:52:14;27.50;;;15.93;;
78927;SDS011;68322;22.726;113.540;2023-04-28T00:54:41;31.95;;;16.13;;
78927;SDS011;68322;22.726;113.540;2023-04-28T00:57:08;26.02;;;15.93;;
78927;SDS011;68322;22.726;113.540;2023-04-28T00:59:35;29.55;;;15.25;;
78927;SDS011;68322;22.726;113.540;2023-04-28T01:02:02;25.17;;;14.85;;
78927;SDS011;68322;22.726;113.540;2023-04-28T01:04:29;26.55;;;13.75;;
78927;SDS011;68322;22.726;113.540;2023-04-28T01:06:56;24.30;;;13.50;;
78927;SDS011;68322;22.726;113.540;2023-04-28T01:09:23;31.30;;;14.32;;
78927;SDS011;68322;22.726;113.540;2023-04-28T01:11:50;35.22;;;15.35;;
78927;SDS011;68322;22.726;113.540;2023-04-28T01:14:17;23.50;;;14.02;;
78927;SDS011;68322;22.726;113.540;2023-04-28T01:16:44;26.65;;;14.18;;
78927;SDS011;68322;22.726;113.540;2023-04-28T01:19:13;28.58;;;17.80;;
78927;SDS011;68322;22.726;113.540;2023-04-28T01:21:42;35.80;;;16.23;;
78927;SDS011;68322;22.726;113.540;2023-04-28T01:24:09;26.70;;;14.30;;
78927;SDS011;68322;22.726;113.540;2023-04-28T01:26:35;31.02;;;16.15;;
78927;SDS011;68322;22.726;113.540;2023-04-28T01:29:02;31.45;;;16.42;;
78927;SDS011;68322;22.726;113.540;2023-04-28T01:31:29;23.73;;;14.27;;
78927;SDS011;68322;22.726;113.540;2023-04-28T01:33:56;27.35;;;15.52;;
78927;SDS011;68322;22.726;113.540;2023-04-28T01:36:22;23.27;;;14.30;;
78927;SDS011;68322;22.726;113.540;2023-04-28T01:38:50;33.60;;;17.13;;
78927;SDS011;68322;22.726;113.540;2023-04-28T01:41:17;31.52;;;15.98;;
78927;SDS011;68322;22.726;113.540;2023-04-28T01:46:30;31.23;;;14.40;;
78927;SDS011;68322;22.726;113.540;2023-04-28T01:48:57;28.38;;;15.15;;
78927;SDS011;68322;22.726;113.540;2023-04-28T01:51:23;28.17;;;15.18;;
78927;SDS011;68322;22.726;113.540;2023-04-28T01:53:51;19.48;;;11.48;;
78927;SDS011;68322;22.726;113.540;2023-04-28T01:56:18;22.23;;;10.77;;
78927;SDS011;68322;22.726;113.540;2023-04-28T01:58:45;18.90;;;10.35;;
78927;SDS011;68322;22.726;113.540;2023-04-28T02:01:12;18.60;;;10.60;;
78927;SDS011;68322;22.726;113.540;2023-04-28T02:03:38;23.65;;;11.45;;
78927;SDS011;68322;22.726;113.540;2023-04-28T02:06:05;24.90;;;13.25;;
78927;SDS011;68322;22.726;113.540;2023-04-28T02:08:32;24.80;;;11.98;;
78927;SDS011;68322;22.726;113.540;2023-04-28T02:10:59;16.58;;;9.88;;
78927;SDS011;68322;22.726;113.540;2023-04-28T02:13:26;23.50;;;11.25;;
78927;SDS011;68322;22.726;113.540;2023-04-28T02:15:52;20.58;;;11.25;;
78927;SDS011;68322;22.726;113.540;2023-04-28T02:18:19;24.52;;;11.57;;
78927;SDS011;68322;22.726;113.540;2023-04-28T02:20:46;17.70;;;9.57;;
78927;SDS011;68322;22.726;113.540;2023-04-28T02:23:12;14.13;;;8.25;;
78927;SDS011;68322;22.726;113.540;2023-04-28T02:25:39;15.32;;;8.45;;
78927;SDS011;68322;22.726;113.540;2023-04-28T02:28:06;15.35;;;7.43;;
78927;SDS011;68322;22.726;113.540;2023-04-28T02:30:33;15.85;;;7.60;;
78927;SDS011;68322;22.726;113.540;2023-04-28T02:33:00;18.83;;;8.13;;
78927;SDS011;68322;22.726;113.540;2023-04-28T02:35:26;13.52;;;7.97;;
78927;SDS011;68322;22.726;113.540;2023-04-28T02:37:53;17.70;;;7.90;;
78927;SDS011;68322;22.726;113.540;2023-04-28T02:40:20;20.52;;;10.82;;
78927;SDS011;68322;22.726;113.540;2023-04-28T02:42:47;18.30;;;10.20;;
78927;SDS011;68322;22.726;113.540;2023-04-28T02:45:13;23.10;;;10.60;;
78927;SDS011;68322;22.726;113.540;2023-04-28T02:47:40;22.77;;;9.55;;
78927;SDS011;68322;22.726;113.540;2023-04-28T02:50:10;22.75;;;9.80;;
78927;SDS011;68322;22.726;113.540;2023-04-28T02:52:36;23.38;;;9.63;;
78927;SDS011;68322;22.726;113.540;2023-04-28T02:55:03;21.17;;;9.43;;
78927;SDS011;68322;22.726;113.540;2023-04-28T02:57:30;19.25;;;10.35;;
78927;SDS011;68322;22.726;113.540;2023-04-28T02:59:57;22.40;;;10.13;;
78927;SDS011;68322;22.726;113.540;2023-04-28T03:02:24;20.25;;;9.20;;
78927;SDS011;68322;22.726;113.540;2023-04-28T03:04:50;15.23;;;8.77;;
78927;SDS011;68322;22.726;113.540;2023-04-28T03:07:17;16.38;;;7.47;;
78927;SDS011;68322;22.726;113.540;2023-04-28T03:09:44;18.08;;;8.07;;
78927;SDS011;68322;22.726;113.540;2023-04-28T03:12:10;19.13;;;7.82;;
78927;SDS011;68322;22.726;113.540;2023-04-28T03:14:37;13.18;;;7.57;;
78927;SDS011;68322;22.726;113.540;2023-04-28T03:17:04;22.00;;;9.25;;
78927;SDS011;68322;22.726;113.540;2023-04-28T03:19:34;17.00;;;8.73;;
78927;SDS011;68322;22.726;113.540;2023-04-28T03:22:01;11.40;;;6.50;;
78927;SDS011;68322;22.726;113.540;2023-04-28T03:24:27;16.70;;;7.22;;
78927;SDS011;68322;22.726;113.540;2023-04-28T03:26:54;14.90;;;8.20;;
78927;SDS011;68322;22.726;113.540;2023-04-28T03:29:21;14.15;;;7.97;;
78927;SDS011;68322;22.726;113.540;2023-04-28T03:31:49;20.08;;;8.25;;
78927;SDS011;68322;22.726;113.540;2023-04-28T03:34:16;15.82;;;7.85;;
78927;SDS011;68322;22.726;113.540;2023-04-28T03:36:43;13.95;;;8.10;;
78927;SDS011;68322;22.726;113.540;2023-04-28T03:39:10;17.27;;;7.57;;
78927;SDS011;68322;22.726;113.540;2023-04-28T03:41:37;15.45;;;8.35;;
78927;SDS011;68322;22.726;113.540;2023-04-28T03:44:03;15.77;;;7.15;;
78927;SDS011;68322;22.726;113.540;2023-04-28T03:46:30;14.98;;;6.88;;
78927;SDS011;68322;22.726;113.540;2023-04-28T03:48:59;14.25;;;7.15;;
78927;SDS011;68322;22.726;113.540;2023-04-28T03:51:28;15.45;;;7.13;;
78927;SDS011;68322;22.726;113.540;2023-04-28T03:53:57;15.30;;;8.02;;
78927;SDS011;68322;22.726;113.540;2023-04-28T03:56:24;18.00;;;7.15;;
78927;SDS011;68322;22.726;113.540;2023-04-28T03:58:51;18.45;;;6.93;;
78927;SDS011;68322;22.726;113.540;2023-04-28T04:01:17;10.52;;;6.55;;
78927;SDS011;68322;22.726;113.540;2023-04-28T04:03:44;15.75;;;7.88;;
78927;SDS011;68322;22.726;113.540;2023-04-28T04:06:11;22.02;;;8.02;;
78927;SDS011;68322;22.726;113.540;2023-04-28T04:08:38;17.15;;;7.18;;
78927;SDS011;68322;22.726;113.540;2023-04-28T04:11:04;15.02;;;6.70;;
78927;SDS011;68322;22.726;113.540;2023-04-28T04:13:31;18.48;;;7.55;;
78927;SDS011;68322;22.726;113.540;2023-04-28T04:15:58;16.30;;;6.68;;
78927;SDS011;68322;22.726;113.540;2023-04-28T04:18:25;15.65;;;6.63;;
78927;SDS011;68322;22.726;113.540;2023-04-28T04:20:51;16.98;;;6.88;;
78927;SDS011;68322;22.726;113.540;2023-04-28T04:23:20;14.20;;;6.15;;
78927;SDS011;68322;22.726;113.540;2023-04-28T04:25:50;12.07;;;6.47;;
78927;SDS011;68322;22.726;113.540;2023-04-28T04:28:17;17.58;;;6.88;;
78927;SDS011;68322;22.726;113.540;2023-04-28T04:30:44;15.27;;;6.65;;
78927;SDS011;68322;22.726;113.540;2023-04-28T04:33:12;13.57;;;7.20;;
78927;SDS011;68322;22.726;113.540;2023-04-28T04:35:38;17.20;;;6.57;;
78927;SDS011;68322;22.726;113.540;2023-04-28T04:38:05;15.65;;;6.07;;
78927;SDS011;68322;22.726;113.540;2023-04-28T04:40:33;15.68;;;6.45;;
78927;SDS011;68322;22.726;113.540;2023-04-28T04:43:00;14.13;;;5.75;;
78927;SDS011;68322;22.726;113.540;2023-04-28T04:45:27;18.45;;;6.32;;
78927;SDS011;68322;22.726;113.540;2023-04-28T04:50:22;15.90;;;5.75;;
78927;SDS011;68322;22.726;113.540;2023-04-28T04:52:49;11.10;;;6.22;;
78927;SDS011;68322;22.726;113.540;2023-04-28T04:55:16;16.55;;;7.20;;
78927;SDS011;68322;22.726;113.540;2023-04-28T04:57:43;14.60;;;7.13;;
78927;SDS011;68322;22.726;113.540;2023-04-28T05:00:10;15.05;;;5.53;;
78927;SDS011;68322;22.726;113.540;2023-04-28T05:02:37;16.08;;;7.85;;
78927;SDS011;68322;22.726;113.540;2023-04-28T05:05:04;12.90;;;6.25;;
78927;SDS011;68322;22.726;113.540;2023-04-28T05:07:31;11.32;;;5.97;;
78927;SDS011;68322;22.726;113.540;2023-04-28T05:09:57;13.52;;;6.10;;
78927;SDS011;68322;22.726;113.540;2023-04-28T05:12:24;18.05;;;6.30;;
78927;SDS011;68322;22.726;113.540;2023-04-28T05:14:51;14.75;;;5.80;;
78927;SDS011;68322;22.726;113.540;2023-04-28T05:17:18;18.02;;;6.82;;
78927;SDS011;68322;22.726;113.540;2023-04-28T05:19:45;15.10;;;6.47;;
78927;SDS011;68322;22.726;113.540;2023-04-28T05:22:11;14.77;;;7.03;;
78927;SDS011;68322;22.726;113.540;2023-04-28T05:24:38;11.60;;;6.30;;
78927;SDS011;68322;22.726;113.540;2023-04-28T05:27:05;16.13;;;6.40;;
78927;SDS011;68322;22.726;113.540;2023-04-28T05:29:32;13.88;;;6.65;;
78927;SDS011;68322;22.726;113.540;2023-04-28T05:31:58;12.05;;;5.65;;
78927;SDS011;68322;22.726;113.540;2023-04-28T05:34:26;13.82;;;5.85;;
78927;SDS011;68322;22.726;113.540;2023-04-28T05:36:52;12.77;;;5.75;;
78927;SDS011;68322;22.726;113.540;2023-04-28T05:39:19;10.63;;;6.13;;
78927;SDS011;68322;22.726;113.540;2023-04-28T05:41:46;13.25;;;6.07;;
78927;SDS011;68322;22.726;113.540;2023-04-28T05:44:15;12.75;;;6.72;;
78927;SDS011;68322;22.726;113.540;2023-04-28T05:46:41;8.85;;;5.07;;
78927;SDS011;68322;22.726;113.540;2023-04-28T05:49:08;12.13;;;5.55;;
78927;SDS011;68322;22.726;113.540;2023-04-28T05:51:35;16.10;;;6.25;;
78927;SDS011;68322;22.726;113.540;2023-04-28T05:54:03;10.68;;;5.80;;
78927;SDS011;68322;22.726;113.540;2023-04-28T05:56:32;15.20;;;5.93;;
78927;SDS011;68322;22.726;113.540;2023-04-28T05:58:59;14.98;;;5.75;;
78927;SDS011;68322;22.726;113.540;2023-04-28T06:01:31;21.67;;;6.38;;
78927;SDS011;68322;22.726;113.540;2023-04-28T06:03:58;11.43;;;6.00;;
78927;SDS011;68322;22.726;113.540;2023-04-28T06:06:25;14.55;;;6.05;;
78927;SDS011;68322;22.726;113.540;2023-04-28T06:08:52;13.15;;;5.60;;
78927;SDS011;68322;22.726;113.540;2023-04-28T06:11:19;16.85;;;5.95;;
78927;SDS011;68322;22.726;113.540;2023-04-28T06:13:47;10.88;;;5.40;;
78927;SDS011;68322;22.726;113.540;2023-04-28T06:16:16;14.10;;;5.82;;
78927;SDS011;68322;22.726;113.540;2023-04-28T06:18:43;11.23;;;5.18;;
78927;SDS011;68322;22.726;113.540;2023-04-28T06:21:12;14.18;;;6.18;;
78927;SDS011;68322;22.726;113.540;2023-04-28T06:23:38;12.50;;;5.93;;
78927;SDS011;68322;22.726;113.540;2023-04-28T06:26:06;13.48;;;5.80;;
78927;SDS011;68322;22.726;113.540;2023-04-28T06:28:33;11.35;;;5.82;;
78927;SDS011;68322;22.726;113.540;2023-04-28T06:31:01;13.30;;;5.32;;
78927;SDS011;68322;22.726;113.540;2023-04-28T06:33:28;10.77;;;4.95;;
78927;SDS011;68322;22.726;113.540;2023-04-28T06:35:55;9.82;;;4.88;;
78927;SDS011;68322;22.726;113.540;2023-04-28T06:38:22;13.30;;;5.18;;
78927;SDS011;68322;22.726;113.540;2023-04-28T06:40:48;11.40;;;4.93;;
78927;SDS011;68322;22.726;113.540;2023-04-28T06:43:15;10.50;;;5.20;;
78927;SDS011;68322;22.726;113.540;2023-04-28T06:45:42;10.13;;;4.75;;
78927;SDS011;68322;22.726;113.540;2023-04-28T06:48:09;8.90;;;4.75;;
78927;SDS011;68322;22.726;113.540;2023-04-28T06:50:36;9.50;;;4.78;;
78927;SDS011;68322;22.726;113.540;2023-04-28T06:53:02;11.68;;;4.18;;
78927;SDS011;68322;22.726;113.540;2023-04-28T06:55:29;10.80;;;4.50;;
78927;SDS011;68322;22.726;113.540;2023-04-28T06:57:56;12.60;;;4.85;;
78927;SDS011;68322;22.726;113.540;2023-04-28T07:00:23;10.73;;;4.53;;
78927;SDS011;68322;22.726;113.540;2023-04-28T07:02:50;10.38;;;4.70;;
78927;SDS011;68322;22.726;113.540;2023-04-28T07:05:17;7.68;;;4.15;;
78927;SDS011;68322;22.726;113.540;2023-04-28T07:07:47;10.35;;;3.80;;
78927;SDS011;68322;22.726;113.540;2023-04-28T07:10:14;8.52;;;4.18;;
78927;SDS011;68322;22.726;113.540;2023-04-28T07:12:40;11.98;;;4.53;;
78927;SDS011;68322;22.726;113.540;2023-04-28T07:15:07;9.65;;;4.55;;
78927;SDS011;68322;22.726;113.540;2023-04-28T07:17:34;10.55;;;4.55;;
78927;SDS011;68322;22.726;113.540;2023-04-28T07:20:01;11.10;;;4.60;;
78927;SDS011;68322;22.726;113.540;2023-04-28T07:22:29;10.32;;;4.30;;
78927;SDS011;68322;22.726;113.540;2023-04-28T07:24:56;14.43;;;4.28;;
78927;SDS011;68322;22.726;113.540;2023-04-28T07:27:23;10.13;;;4.38;;
78927;SDS011;68322;22.726;113.540;2023-04-28T07:29:49;6.25;;;3.70;;
78927;SDS011;68322;22.726;113.540;2023-04-28T07:32:16;12.30;;;3.80;;
78927;SDS011;68322;22.726;113.540;2023-04-28T07:34:43;8.88;;;3.83;;
78927;SDS011;68322;22.726;113.540;2023-04-28T07:37:09;9.25;;;3.90;;
78927;SDS011;68322;22.726;113.540;2023-04-28T07:39:37;11.38;;;3.80;;
78927;SDS011;68322;22.726;113.540;2023-04-28T07:42:04;10.93;;;4.72;;
78927;SDS011;68322;22.726;113.540;2023-04-28T07:44:36;10.57;;;3.72;;
78927;SDS011;68322;22.726;113.540;2023-04-28T07:47:05;9.48;;;3.78;;
78927;SDS011;68322;22.726;113.540;2023-04-28T07:49:32;12.40;;;3.95;;
78927;SDS011;68322;22.726;113.540;2023-04-28T07:51:59;10.82;;;4.13;;
78927;SDS011;68322;22.726;113.540;2023-04-28T07:54:25;11.90;;;4.20;;
78927;SDS011;68322;22.726;113.540;2023-04-28T07:56:52;10.98;;;4.72;;
78927;SDS011;68322;22.726;113.540;2023-04-28T07:59:19;9.35;;;4.20;;
78927;SDS011;68322;22.726;113.540;2023-04-28T08:01:46;11.13;;;4.57;;
78927;SDS011;68322;22.726;113.540;2023-04-28T08:04:12;11.77;;;4.93;;
78927;SDS011;68322;22.726;113.540;2023-04-28T08:06:39;14.73;;;4.70;;
78927;SDS011;68322;22.726;113.540;2023-04-28T08:09:06;10.85;;;3.97;;
78927;SDS011;68322;22.726;113.540;2023-04-28T08:11:33;11.98;;;4.82;;
78927;SDS011;68322;22.726;113.540;2023-04-28T08:14:00;14.60;;;5.00;;
78927;SDS011;68322;22.726;113.540;2023-04-28T08:16:28;9.50;;;4.45;;
78927;SDS011;68322;22.726;113.540;2023-04-28T08:18:54;13.90;;;4.72;;
78927;SDS011;68322;22.726;113.540;2023-04-28T08:21:21;9.02;;;3.92;;
78927;SDS011;68322;22.726;113.540;2023-04-28T08:23:48;14.30;;;4.63;;
78927;SDS011;68322;22.726;113.540;2023-04-28T08:26:15;10.57;;;4.28;;
78927;SDS011;68322;22.726;113.540;2023-04-28T08:28:41;13.20;;;4.00;;
78927;SDS011;68322;22.726;113.540;2023-04-28T08:31:08;11.73;;;4.15;;
78927;SDS011;68322;22.726;113.540;2023-04-28T08:33:35;13.35;;;4.30;;
78927;SDS011;68322;22.726;113.540;2023-04-28T08:36:02;10.65;;;4.57;;
78927;SDS011;68322;22.726;113.540;2023-04-28T08:38:29;13.70;;;4.35;;
78927;SDS011;68322;22.726;113.540;2023-04-28T08:40:56;10.40;;;4.05;;
78927;SDS011;68322;22.726;113.540;2023-04-28T08:43:24;10.98;;;4.30;;
78927;SDS011;68322;22.726;113.540;2023-04-28T08:45:52;12.23;;;4.43;;
78927;SDS011;68322;22.726;113.540;2023-04-28T08:48:20;11.77;;;4.10;;
78927;SDS011;68322;22.726;113.540;2023-04-28T08:53:15;9.52;;;4.45;;
78927;SDS011;68322;22.726;113.540;2023-04-28T08:55:44;11.13;;;4.38;;
78927;SDS011;68322;22.726;113.540;2023-04-28T08:58:11;12.35;;;5.20;;
78927;SDS011;68322;22.726;113.540;2023-04-28T09:00:38;9.23;;;4.57;;
78927;SDS011;68322;22.726;113.540;2023-04-28T09:03:05;14.55;;;4.85;;
78927;SDS011;68322;22.726;113.540;2023-04-28T09:05:33;10.95;;;4.75;;
78927;SDS011;68322;22.726;113.540;2023-04-28T09:08:00;16.52;;;5.18;;
78927;SDS011;68322;22.726;113.540;2023-04-28T09:10:28;16.15;;;5.40;;
78927;SDS011;68322;22.726;113.540;2023-04-28T09:12:55;13.68;;;5.20;;
78927;SDS011;68322;22.726;113.540;2023-04-28T09:17:52;16.08;;;5.55;;
78927;SDS011;68322;22.726;113.540;2023-04-28T09:20:19;12.45;;;5.60;;
78927;SDS011;68322;22.726;113.540;2023-04-28T09:22:47;11.48;;;5.43;;
78927;SDS011;68322;22.726;113.540;2023-04-28T09:25:14;17.40;;;5.60;;
78927;SDS011;68322;22.726;113.540;2023-04-28T09:27:41;11.98;;;5.13;;
78927;SDS011;68322;22.726;113.540;2023-04-28T09:30:08;16.55;;;5.50;;
78927;SDS011;68322;22.726;113.540;2023-04-28T09:32:36;11.75;;;4.88;;
78927;SDS011;68322;22.726;113.540;2023-04-28T09:35:03;13.27;;;5.70;;
78927;SDS011;68322;22.726;113.540;2023-04-28T09:37:32;14.30;;;5.20;;
78927;SDS011;68322;22.726;113.540;2023-04-28T09:40:09;10.90;;;5.15;;
78927;SDS011;68322;22.726;113.540;2023-04-28T09:42:43;11.93;;;4.85;;
78927;SDS011;68322;22.726;113.540;2023-04-28T09:45:11;10.20;;;5.00;;
78927;SDS011;68322;22.726;113.540;2023-04-28T09:47:39;13.70;;;6.72;;
78927;SDS011;68322;22.726;113.540;2023-04-28T09:50:10;17.42;;;6.75;;
78927;SDS011;68322;22.726;113.540;2023-04-28T09:52:42;17.38;;;5.97;;
78927;SDS011;68322;22.726;113.540;2023-04-28T09:55:13;13.30;;;5.68;;
78927;SDS011;68322;22.726;113.540;2023-04-28T09:57:40;15.40;;;5.80;;
78927;SDS011;68322;22.726;113.540;2023-04-28T10:00:10;11.85;;;5.22;;
78927;SDS011;68322;22.726;113.540;2023-04-28T10:02:37;12.32;;;5.47;;
78927;SDS011;68322;22.726;113.540;2023-04-28T10:05:03;14.88;;;5.15;;
78927;SDS011;68322;22.726;113.540;2023-04-28T10:07:32;18.77;;;5.13;;
78927;SDS011;68322;22.726;113.540;2023-04-28T10:10:00;18.75;;;5.93;;
78927;SDS011;68322;22.726;113.540;2023-04-28T10:12:27;12.73;;;5.93;;
78927;SDS011;68322;22.726;113.540;2023-04-28T10:14:54;10.68;;;5.50;;
78927;SDS011;68322;22.726;113.540;2023-04-28T10:17:21;11.52;;;4.93;;
78927;SDS011;68322;22.726;113.540;2023-04-28T10:19:51;10.63;;;5.18;;
78927;SDS011;68322;22.726;113.540;2023-04-28T10:25:11;12.35;;;5.53;;
78927;SDS011;68322;22.726;113.540;2023-04-28T10:27:44;15.23;;;5.53;;
78927;SDS011;68322;22.726;113.540;2023-04-28T10:30:15;17.00;;;6.00;;
78927;SDS011;68322;22.726;113.540;2023-04-28T10:32:42;13.57;;;5.75;;
78927;SDS011;68322;22.726;113.540;2023-04-28T10:38:04;21.75;;;6.38;;
78927;SDS011;68322;22.726;113.540;2023-04-28T10:42:59;13.20;;;6.07;;
78927;SDS011;68322;22.726;113.540;2023-04-28T10:48:11;15.98;;;6.55;;
78927;SDS011;68322;22.726;113.540;2023-04-28T10:50:51;13.38;;;5.72;;
78927;SDS011;68322;22.726;113.540;2023-04-28T10:53:44;17.42;;;5.50;;
78927;SDS011;68322;22.726;113.540;2023-04-28T10:58:43;16.77;;;6.43;;
78927;SDS011;68322;22.726;113.540;2023-04-28T11:06:18;15.77;;;6.30;;
78927;SDS011;68322;22.726;113.540;2023-04-28T11:08:57;17.75;;;6.75;;
78927;SDS011;68322;22.726;113.540;2023-04-28T11:11:30;17.48;;;6.25;;
78927;SDS011;68322;22.726;113.540;2023-04-28T11:15:00;14.13;;;6.50;;
78927;SDS011;68322;22.726;113.540;2023-04-28T11:19:37;13.15;;;6.85;;
78927;SDS011;68322;22.726;113.540;2023-04-28T11:22:04;17.98;;;6.93;;
78927;SDS011;68322;22.726;113.540;2023-04-28T11:24:37;18.50;;;6.63;;
78927;SDS011;68322;22.726;113.540;2023-04-28T11:27:04;16.20;;;6.28;;
78927;SDS011;68322;22.726;113.540;2023-04-28T11:29:37;16.23;;;6.55;;
78927;SDS011;68322;22.726;113.540;2023-04-28T11:32:05;15.68;;;6.93;;
78927;SDS011;68322;22.726;113.540;2023-04-28T11:34:32;14.85;;;6.75;;
78927;SDS011;68322;22.726;113.540;2023-04-28T11:37:00;17.00;;;6.70;;
78927;SDS011;68322;22.726;113.540;2023-04-28T11:39:28;15.75;;;7.07;;
78927;SDS011;68322;22.726;113.540;2023-04-28T11:41:55;19.80;;;7.53;;
78927;SDS011;68322;22.726;113.540;2023-04-28T11:44:23;17.42;;;7.53;;
78927;SDS011;68322;22.726;113.540;2023-04-28T11:46:51;19.13;;;7.30;;
78927;SDS011;68322;22.726;113.540;2023-04-28T11:49:31;12.82;;;7.88;;
78927;SDS011;68322;22.726;113.540;2023-04-28T11:52:04;17.45;;;7.03;;
78927;SDS011;68322;22.726;113.540;2023-04-28T11:54:31;15.30;;;7.15;;
78927;SDS011;68322;22.726;113.540;2023-04-28T11:56:58;11.55;;;6.63;;
78927;SDS011;68322;22.726;113.540;2023-04-28T11:59:32;16.10;;;6.95;;
78927;SDS011;68322;22.726;113.540;2023-04-28T12:04:33;16.20;;;7.45;;
78927;SDS011;68322;22.726;113.540;2023-04-28T12:07:08;15.27;;;7.68;;
78927;SDS011;68322;22.726;113.540;2023-04-28T12:09:37;25.65;;;9.57;;
78927;SDS011;68322;22.726;113.540;2023-04-28T12:12:05;23.05;;;7.35;;
78927;SDS011;68322;22.726;113.540;2023-04-28T12:14:34;22.55;;;8.52;;
78927;SDS011;68322;22.726;113.540;2023-04-28T12:17:22;20.67;;;8.07;;
78927;SDS011;68322;22.726;113.540;2023-04-28T12:19:51;17.38;;;7.78;;
78927;SDS011;68322;22.726;113.540;2023-04-28T12:22:18;19.10;;;8.15;;
78927;SDS011;68322;22.726;113.540;2023-04-28T12:24:44;17.35;;;8.38;;
78927;SDS011;68322;22.726;113.540;2023-04-28T12:27:15;19.27;;;8.02;;
78927;SDS011;68322;22.726;113.540;2023-04-28T12:29:43;14.27;;;7.80;;
78927;SDS011;68322;22.726;113.540;2023-04-28T12:32:10;17.90;;;7.65;;
78927;SDS011;68322;22.726;113.540;2023-04-28T12:34:38;17.15;;;7.57;;
78927;SDS011;68322;22.726;113.540;2023-04-28T12:37:05;16.65;;;8.15;;
78927;SDS011;68322;22.726;113.540;2023-04-28T12:39:32;20.23;;;7.50;;
78927;SDS011;68322;22.726;113.540;2023-04-28T12:42:00;14.20;;;7.72;;
78927;SDS011;68322;22.726;113.540;2023-04-28T12:44:35;13.50;;;6.65;;
78927;SDS011;68322;22.726;113.540;2023-04-28T12:47:06;16.42;;;6.95;;
78927;SDS011;68322;22.726;113.540;2023-04-28T12:49:33;17.02;;;8.70;;
78927;SDS011;68322;22.726;113.540;2023-04-28T12:52:00;21.15;;;8.07;;
78927;SDS011;68322;22.726;113.540;2023-04-28T12:54:27;22.58;;;8.18;;
78927;SDS011;68322;22.726;113.540;2023-04-28T12:56:54;13.38;;;6.70;;
78927;SDS011;68322;22.726;113.540;2023-04-28T12:59:22;12.73;;;6.55;;
78927;SDS011;68322;22.726;113.540;2023-04-28T13:01:53;21.13;;;8.57;;
78927;SDS011;68322;22.726;113.540;2023-04-28T13:04:20;17.35;;;7.13;;
78927;SDS011;68322;22.726;113.540;2023-04-28T13:06:48;12.48;;;6.80;;
78927;SDS011;68322;22.726;113.540;2023-04-28T13:09:16;15.57;;;6.80;;
78927;SDS011;68322;22.726;113.540;2023-04-28T13:11:44;15.38;;;5.85;;
78927;SDS011;68322;22.726;113.540;2023-04-28T13:14:12;18.40;;;7.47;;
78927;SDS011;68322;22.726;113.540;2023-04-28T13:16:40;12.77;;;5.30;;
78927;SDS011;68322;22.726;113.540;2023-04-28T13:19:07;15.25;;;5.57;;
78927;SDS011;68322;22.726;113.540;2023-04-28T13:21:39;15.52;;;5.90;;
78927;SDS011;68322;22.726;113.540;2023-04-28T13:24:07;12.05;;;5.80;;
78927;SDS011;68322;22.726;113.540;2023-04-28T13:26:34;12.82;;;5.68;;
78927;SDS011;68322;22.726;113.540;2023-04-28T13:29:01;14.82;;;7.00;;
78927;SDS011;68322;22.726;113.540;2023-04-28T13:31:28;18.83;;;6.57;;
78927;SDS011;68322;22.726;113.540;2023-04-28T13:33:55;12.75;;;6.70;;
78927;SDS011;68322;22.726;113.540;2023-04-28T13:36:22;11.25;;;6.75;;
78927;SDS011;68322;22.726;113.540;2023-04-28T13:38:49;18.25;;;6.32;;
78927;SDS011;68322;22.726;113.540;2023-04-28T13:41:16;13.88;;;6.90;;
78927;SDS011;68322;22.726;113.540;2023-04-28T13:43:45;12.77;;;7.30;;
78927;SDS011;68322;22.726;113.540;2023-04-28T13:46:12;16.80;;;7.68;;
78927;SDS011;68322;22.726;113.540;2023-04-28T13:48:39;19.25;;;8.35;;
78927;SDS011;68322;22.726;113.540;2023-04-28T13:51:08;15.50;;;7.82;;
78927;SDS011;68322;22.726;113.540;2023-04-28T13:53:35;16.98;;;7.72;;
78927;SDS011;68322;22.726;113.540;2023-04-28T13:56:04;16.77;;;8.18;;
78927;SDS011;68322;22.726;113.540;2023-04-28T13:58:32;19.98;;;9.00;;
78927;SDS011;68322;22.726;113.540;2023-04-28T14:01:00;16.77;;;8.90;;
78927;SDS011;68322;22.726;113.540;2023-04-28T14:03:28;25.15;;;11.00;;
78927;SDS011;68322;22.726;113.540;2023-04-28T14:05:56;26.30;;;9.57;;
78927;SDS011;68322;22.726;113.540;2023-04-28T14:08:23;18.48;;;9.80;;
78927;SDS011;68322;22.726;113.540;2023-04-28T14:10:50;22.73;;;11.50;;
78927;SDS011;68322;22.726;113.540;2023-04-28T14:13:17;21.80;;;9.50;;
78927;SDS011;68322;22.726;113.540;2023-04-28T14:15:45;16.85;;;9.13;;
78927;SDS011;68322;22.726;113.540;2023-04-28T14:18:13;20.20;;;9.95;;
78927;SDS011;68322;22.726;113.540;2023-04-28T14:20:40;26.33;;;10.85;;
78927;SDS011;68322;22.726;113.540;2023-04-28T14:23:07;17.90;;;9.90;;
78927;SDS011;68322;22.726;113.540;2023-04-28T14:25:34;27.30;;;11.23;;
78927;SDS011;68322;22.726;113.540;2023-04-28T14:28:01;22.73;;;10.27;;
78927;SDS011;68322;22.726;113.540;2023-04-28T14:30:28;24.48;;;10.52;;
78927;SDS011;68322;22.726;113.540;2023-04-28T14:32:55;19.67;;;10.60;;
78927;SDS011;68322;22.726;113.540;2023-04-28T14:35:22;23.20;;;10.85;;
78927;SDS011;68322;22.726;113.540;2023-04-28T14:37:50;23.23;;;10.88;;
78927;SDS011;68322;22.726;113.540;2023-04-28T14:40:18;23.17;;;10.60;;
78927;SDS011;68322;22.726;113.540;2023-04-28T14:42:45;30.23;;;11.40;;